Kaneohe, HI

2:22 PM HST on February 06, 2016 (GMT -1000)
Kaneohe Bay Marine Corps Air Facility | | Change Station
CLOSE
Current Station
Airport
Location: Kaneohe MCBH,
Elevation: 23 ft
Nearby Weather Stations
Active Advisory: Wind Advisory Active Notice: Record Report

Elev 23 ft 21.45 °N, 157.76 °W | Updated 25 minutes ago

Overcast
Overcast
77 °F
Feels Like 77 °F
N
8
Wind Variable Wind from West

Today
High -- | Low -- °F
--% Chance of Precip.
Yesterday
High -- | Low -- °F
Precip. -- in
Pressure 29.88 in
Visibility 7.0 miles
Clouds Overcast 4500 ft
Dew Point 65 °F
Humidity 66%
Rainfall 0.00 in
Snow Depth Not available.
7:06 AM 6:23 PM
Waning Crescent, 3% visible
METAR PHNG 062357Z 27007KT 7SM OVC045 25/18 A2989 RMK AO2 SLP117 T02500183 10261 20222 58026 $
Pressure 29.88 in
Visibility 7.0 miles
Clouds Overcast 4500 ft
Dew Point 65 °F
Humidity 66%
Rainfall 0.00 in
Snow Depth Not available.
7:06 AM 6:23 PM
Waning Crescent, 3% visible
METAR PHNG 062357Z 27007KT 7SM OVC045 25/18 A2989 RMK AO2 SLP117 T02500183 10261 20222 58026 $

10-Day Weather Forecast

Almanac

Astronomy

Feb. 06, 2016 Rise Set
Actual Time
Civil Twilight
Nautical Twilight
Astronomical Twilight
Moon
Length of Visible Light
Length of Day
Tomorrow will be .
, % of the Moon is Illuminated

Today's Extremes

State Highs State Lows

Community

WunderPhotos

Upload Photos

1,891,106 photos uploaded!

WunderBlog® & News

Nearby

Air Quality

  Air Quality AQ Index Pollutant
Not available.

Snow Depth

Station Depth Elevation

Earthquake Activity

City Distance Mag. Time & Date
Minimum magnitude displayed is 2.5.

Coastal Water Temperatures

Place Temperature

Stations

Nearby Weather Stations

Station Location Temp. Windchill Dew Point Humidity Wind Precip. Elev Updated Type
                   

Watches & Warnings

Wind Advisory
Issued: 9:28 AM HST Feb. 6, 2016 – National Weather Service

... Wind Advisory now in effect from 8 PM this evening to noon HST
Sunday...

* timing... late this evening through Sunday morning.

* Winds... along and behind a front... north winds up to 30 mph with
localized gusts up to 50 mph. Winds will be strongest over and
downwind of higher terrain.

* Impacts... motorists... especially those in high profile
vehicles... are urged to drive with extreme caution.
Lightweight outdoor objects may be blown around... and should
be secured before winds increase.

Precautionary/preparedness actions...

A Wind Advisory means that sustained winds of at least 30 mph...
or gusts of at least 50 mph... are expected. Motorists should use
extra caution.